createdAt,value
2022-11-15T00:01:31.311Z,7.40
2022-11-15T00:03:57.671Z,7.50
2022-11-15T00:06:24.049Z,6.20
2022-11-15T00:08:50.395Z,5.80
2022-11-15T00:11:16.746Z,5.90
2022-11-15T00:13:43.089Z,5.97
2022-11-15T00:16:09.448Z,6.03
2022-11-15T00:18:36.997Z,6.20
2022-11-15T00:21:02.135Z,6.00
2022-11-15T00:23:28.664Z,6.27
2022-11-15T00:25:57.269Z,6.50
2022-11-15T00:28:23.642Z,6.03
2022-11-15T00:30:49.996Z,6.07
2022-11-15T00:33:16.332Z,6.93
2022-11-15T00:35:42.683Z,6.00
2022-11-15T00:38:09.026Z,5.77
2022-11-15T00:40:35.375Z,5.90
2022-11-15T00:43:01.717Z,6.30
2022-11-15T00:45:28.079Z,6.43
2022-11-15T00:47:54.416Z,6.60
2022-11-15T00:50:20.771Z,6.23
2022-11-15T00:52:47.153Z,6.10
2022-11-15T00:55:13.508Z,6.67
2022-11-15T00:57:39.844Z,6.87
2022-11-15T01:00:06.224Z,6.50
2022-11-15T01:02:32.568Z,5.93
2022-11-15T01:04:58.927Z,6.17
2022-11-15T01:07:25.332Z,6.10
2022-11-15T01:09:51.623Z,7.83
2022-11-15T01:12:17.972Z,5.60
2022-11-15T01:14:44.309Z,7.50
2022-11-15T01:17:10.652Z,6.97
2022-11-15T01:19:37.011Z,6.40
2022-11-15T01:22:04.787Z,6.30
2022-11-15T01:24:29.710Z,6.77
2022-11-15T01:26:56.055Z,6.13
2022-11-15T01:29:22.437Z,6.20
2022-11-15T01:31:48.779Z,6.57
2022-11-15T01:34:15.157Z,6.33
2022-11-15T01:36:41.499Z,6.60
2022-11-15T01:39:07.875Z,6.43
2022-11-15T01:41:34.253Z,6.50
2022-11-15T01:44:00.601Z,7.00
2022-11-15T01:46:26.943Z,6.20
2022-11-15T01:48:53.296Z,6.33
2022-11-15T01:51:19.637Z,7.03
2022-11-15T01:53:45.987Z,6.30
2022-11-15T01:56:12.358Z,5.80
2022-11-15T01:58:38.716Z,6.80
2022-11-15T02:01:05.139Z,6.50
2022-11-15T02:03:31.666Z,5.97
2022-11-15T02:05:57.756Z,6.70
2022-11-15T02:08:24.097Z,5.93
2022-11-15T02:10:50.439Z,6.03
2022-11-15T02:13:16.792Z,6.40
2022-11-15T02:15:43.135Z,7.17
2022-11-15T02:18:09.481Z,6.27
2022-11-15T02:20:35.831Z,7.10
2022-11-15T02:23:03.389Z,6.33
2022-11-15T02:25:28.585Z,6.83
2022-11-15T02:27:54.927Z,6.33
2022-11-15T02:30:21.270Z,5.87
2022-11-15T02:32:47.620Z,6.30
2022-11-15T02:35:13.967Z,6.97
2022-11-15T02:37:40.318Z,6.47
2022-11-15T02:40:06.662Z,6.00
2022-11-15T02:42:33.018Z,6.27
2022-11-15T02:44:59.369Z,7.20
2022-11-15T02:47:25.715Z,6.90
2022-11-15T02:49:52.058Z,6.80
2022-11-15T02:52:18.404Z,6.73
2022-11-15T02:54:44.781Z,6.20
2022-11-15T02:57:11.127Z,6.57
2022-11-15T02:59:37.467Z,6.43
2022-11-15T03:02:03.817Z,6.00
2022-11-15T03:04:30.161Z,7.17
2022-11-15T03:06:56.528Z,6.10
2022-11-15T03:09:23.078Z,6.50
2022-11-15T03:11:49.430Z,6.83
2022-11-15T03:14:15.765Z,7.00
2022-11-15T03:16:42.123Z,6.57
2022-11-15T03:19:08.468Z,6.57
2022-11-15T03:21:34.823Z,7.30
2022-11-15T03:24:01.162Z,7.20
2022-11-15T03:26:27.508Z,7.23
2022-11-15T03:28:53.852Z,6.97
2022-11-15T03:31:20.211Z,7.00
2022-11-15T03:33:46.555Z,7.00
2022-11-15T03:36:12.909Z,7.20
2022-11-15T03:38:39.342Z,7.10
2022-11-15T03:41:05.607Z,7.00
2022-11-15T03:43:32.231Z,6.93
2022-11-15T03:45:58.299Z,7.30
2022-11-15T03:48:24.643Z,7.90
2022-11-15T03:50:50.994Z,6.67
2022-11-15T03:53:17.339Z,6.57
2022-11-15T03:55:43.681Z,7.10
2022-11-15T03:58:10.024Z,7.77
2022-11-15T04:00:36.377Z,7.17
2022-11-15T04:03:02.734Z,7.67
2022-11-15T04:05:29.086Z,7.93
2022-11-15T04:07:55.457Z,6.97
2022-11-15T04:10:21.811Z,7.77
2022-11-15T04:12:48.157Z,7.17
2022-11-15T04:15:14.495Z,7.27
2022-11-15T04:17:40.874Z,6.93
2022-11-15T04:20:07.303Z,7.33
2022-11-15T04:22:33.637Z,6.57
2022-11-15T04:24:59.991Z,6.53
2022-11-15T04:27:26.334Z,6.70
2022-11-15T04:29:52.682Z,7.53
2022-11-15T04:32:19.020Z,6.17
2022-11-15T04:34:45.364Z,7.70
2022-11-15T04:37:11.710Z,6.53
2022-11-15T04:39:38.054Z,6.83
2022-11-15T04:42:04.433Z,7.70
2022-11-15T04:44:30.779Z,7.00
2022-11-15T04:46:57.118Z,6.20
2022-11-15T04:49:23.466Z,6.40
2022-11-15T04:51:49.811Z,6.43
2022-11-15T04:54:16.153Z,7.67
2022-11-15T04:56:42.501Z,6.50
2022-11-15T04:59:08.849Z,7.43
2022-11-15T05:01:35.470Z,6.60
2022-11-15T05:04:01.548Z,7.07
2022-11-15T05:06:27.885Z,6.20
2022-11-15T05:08:54.265Z,6.50
2022-11-15T05:11:20.610Z,7.40
2022-11-15T05:13:46.997Z,6.73
2022-11-15T05:16:13.376Z,7.07
2022-11-15T05:18:39.725Z,6.67
2022-11-15T05:21:06.064Z,5.90
2022-11-15T05:23:32.737Z,6.37
2022-11-15T05:25:58.753Z,6.80
2022-11-15T05:28:25.094Z,6.90
2022-11-15T05:30:51.434Z,6.70
2022-11-15T05:33:17.784Z,6.30
2022-11-15T05:35:44.122Z,5.97
2022-11-15T05:38:10.474Z,6.93
2022-11-15T05:40:36.816Z,6.73
2022-11-15T05:43:03.164Z,6.87
2022-11-15T05:45:29.506Z,6.50
2022-11-15T05:47:55.883Z,6.40
2022-11-15T05:50:22.221Z,6.30
2022-11-15T05:52:48.572Z,6.57
2022-11-15T05:55:14.903Z,7.43
2022-11-15T05:57:41.251Z,6.20
2022-11-15T06:00:07.613Z,5.90
2022-11-15T06:02:34.054Z,6.00
2022-11-15T06:05:00.603Z,5.93
2022-11-15T06:07:27.019Z,6.80
2022-11-15T06:09:53.289Z,6.33
2022-11-15T06:12:19.639Z,6.17
2022-11-15T06:14:45.982Z,6.00
2022-11-15T06:17:12.328Z,6.27
2022-11-15T06:19:38.679Z,5.90
2022-11-15T06:22:05.026Z,6.27
2022-11-15T06:24:31.375Z,6.47
2022-11-15T06:26:57.728Z,6.90
2022-11-15T06:29:24.105Z,7.23
2022-11-15T06:31:50.452Z,5.53
2022-11-15T06:34:16.799Z,6.10
2022-11-15T06:36:43.151Z,6.83
2022-11-15T06:39:09.504Z,5.73
2022-11-15T06:41:35.872Z,6.93
2022-11-15T06:44:02.228Z,5.60
2022-11-15T06:46:28.577Z,6.20
2022-11-15T06:48:54.913Z,6.70
2022-11-15T06:51:21.281Z,6.13
2022-11-15T06:53:47.612Z,6.00
2022-11-15T06:56:16.011Z,6.10
2022-11-15T06:58:40.399Z,6.17
2022-11-15T07:01:06.837Z,6.53
2022-11-15T07:03:33.423Z,9.50
2022-11-15T07:06:05.802Z,7.07
2022-11-15T07:08:25.809Z,7.03
2022-11-15T07:10:52.159Z,6.77
2022-11-15T07:13:18.502Z,6.10
2022-11-15T07:15:44.854Z,8.03
2022-11-15T07:18:11.198Z,6.90
2022-11-15T07:20:37.547Z,10.63
2022-11-15T07:23:03.898Z,5.93
2022-11-15T07:25:30.269Z,8.43
2022-11-15T07:27:56.616Z,6.87
2022-11-15T07:30:22.971Z,6.00
2022-11-15T07:32:49.393Z,6.13
2022-11-15T07:35:15.795Z,5.70
2022-11-15T07:37:42.147Z,5.63
2022-11-15T07:40:08.532Z,5.90
2022-11-15T07:42:34.871Z,5.63
2022-11-15T07:45:01.224Z,6.83
2022-11-15T07:47:28.626Z,5.70
2022-11-15T07:49:54.944Z,5.70
2022-11-15T07:52:21.301Z,17.40
2022-11-15T07:54:47.652Z,6.73
2022-11-15T07:57:14.006Z,5.97
2022-11-15T07:59:40.353Z,8.10
2022-11-15T08:02:06.824Z,6.03
2022-11-15T08:04:33.043Z,6.20
2022-11-15T08:06:59.405Z,5.83
2022-11-15T08:09:25.789Z,5.57
2022-11-15T08:11:52.142Z,6.03
2022-11-15T08:14:18.488Z,5.47
2022-11-15T08:16:44.836Z,5.17
2022-11-15T08:19:11.192Z,5.50
2022-11-15T08:21:37.542Z,6.40
2022-11-15T08:24:03.933Z,5.33
2022-11-15T08:26:30.322Z,6.10
2022-11-15T08:28:56.679Z,5.50
2022-11-15T08:31:23.024Z,5.67
2022-11-15T08:33:49.375Z,6.50
2022-11-15T08:36:15.726Z,6.00
2022-11-15T08:38:42.079Z,6.33
2022-11-15T08:41:08.421Z,6.37
2022-11-15T08:43:35.051Z,6.60
2022-11-15T08:46:01.154Z,6.70
2022-11-15T08:48:27.504Z,6.17
2022-11-15T08:50:53.859Z,6.33
2022-11-15T08:53:20.206Z,6.60
2022-11-15T08:55:46.558Z,5.60
2022-11-15T08:58:12.909Z,5.90
2022-11-15T09:00:39.262Z,6.57
2022-11-15T09:03:05.625Z,5.43
2022-11-15T09:05:31.994Z,5.93
2022-11-15T09:07:58.354Z,6.93
2022-11-15T09:10:24.739Z,6.17
2022-11-15T09:12:51.103Z,8.43
2022-11-15T09:15:17.480Z,5.53
2022-11-15T09:17:43.805Z,6.70
2022-11-15T09:20:10.146Z,6.40
2022-11-15T09:22:36.505Z,6.70
2022-11-15T09:25:04.486Z,6.50
2022-11-15T09:27:29.207Z,7.73
2022-11-15T09:29:55.600Z,6.87
2022-11-15T09:32:21.935Z,6.20
2022-11-15T09:34:48.291Z,6.30
2022-11-15T09:37:14.641Z,6.37
2022-11-15T09:39:40.989Z,6.40
2022-11-15T09:42:07.336Z,7.50
2022-11-15T09:44:33.688Z,6.20
2022-11-15T09:47:00.043Z,6.23
2022-11-15T09:49:26.390Z,8.07
2022-11-15T09:51:52.750Z,8.87
2022-11-15T09:54:51.166Z,7.03
2022-11-15T09:56:45.519Z,6.80
2022-11-15T09:59:11.813Z,8.90
2022-11-15T10:01:38.216Z,6.43
2022-11-15T10:04:10.553Z,6.90
2022-11-15T10:06:30.953Z,6.17
2022-11-15T10:08:57.302Z,6.63
2022-11-15T10:11:37.372Z,6.83
2022-11-15T10:13:50.019Z,7.80
2022-11-15T10:16:16.363Z,6.37
2022-11-15T10:18:42.722Z,7.67
2022-11-15T10:21:09.092Z,7.27
2022-11-15T10:23:35.441Z,8.57
2022-11-15T10:26:06.555Z,7.93
2022-11-15T10:28:28.190Z,7.30
2022-11-15T10:30:54.538Z,6.43
2022-11-15T10:33:20.900Z,6.80
2022-11-15T10:35:47.264Z,8.00
2022-11-15T10:38:13.630Z,6.43
2022-11-15T10:40:40.021Z,8.00
2022-11-15T10:43:06.316Z,6.70
2022-11-15T10:45:32.655Z,6.73
2022-11-15T10:48:01.815Z,6.37
2022-11-15T10:50:28.173Z,7.10
2022-11-15T10:52:54.509Z,6.60
2022-11-15T10:55:20.850Z,8.20
2022-11-15T10:57:47.202Z,7.10
2022-11-15T11:00:13.547Z,10.43
2022-11-15T11:02:39.895Z,8.67
2022-11-15T11:05:06.243Z,7.40
2022-11-15T11:07:32.689Z,8.40
2022-11-15T11:09:58.938Z,8.77
2022-11-15T11:12:25.307Z,8.57
2022-11-15T11:14:51.657Z,8.13
2022-11-15T11:17:18.015Z,6.97
2022-11-15T11:19:44.358Z,8.80
2022-11-15T11:22:10.694Z,7.73
2022-11-15T11:24:37.052Z,8.47
2022-11-15T11:27:03.396Z,6.10
2022-11-15T11:29:29.752Z,8.53
2022-11-15T11:31:56.085Z,6.80
2022-11-15T11:34:22.439Z,8.43
2022-11-15T11:36:48.798Z,6.03
2022-11-15T11:39:15.149Z,8.67
2022-11-15T11:41:41.509Z,6.90
2022-11-15T11:44:07.858Z,6.60
2022-11-15T11:46:34.216Z,6.87
2022-11-15T11:49:00.558Z,7.40
2022-11-15T11:51:26.912Z,12.57
2022-11-15T11:53:53.276Z,12.23
2022-11-15T11:56:19.633Z,6.27
2022-11-15T11:58:45.979Z,5.87
2022-11-15T12:01:13.019Z,6.00
2022-11-15T12:03:38.677Z,6.60
2022-11-15T12:06:05.070Z,8.70
2022-11-15T12:08:31.830Z,6.30
2022-11-15T12:10:57.867Z,8.47
2022-11-15T12:13:24.208Z,7.33
2022-11-15T12:15:50.579Z,6.40
2022-11-15T12:18:16.919Z,6.57
2022-11-15T12:20:43.272Z,6.03
2022-11-15T12:23:09.613Z,6.50
2022-11-15T12:25:35.960Z,6.70
2022-11-15T12:28:02.304Z,6.83
2022-11-15T12:30:28.729Z,6.73
2022-11-15T12:32:55.090Z,6.70
2022-11-15T12:35:21.457Z,6.80
2022-11-15T12:37:47.804Z,7.33
2022-11-15T12:40:14.154Z,9.53
2022-11-15T12:42:40.526Z,6.23
2022-11-15T12:45:06.870Z,6.40
2022-11-15T12:47:33.214Z,7.00
2022-11-15T12:49:59.587Z,6.93
2022-11-15T12:52:25.944Z,7.40
2022-11-15T12:54:52.293Z,8.23
2022-11-15T12:57:18.641Z,7.43
2022-11-15T12:59:45.021Z,6.93
2022-11-15T13:02:11.372Z,6.67
2022-11-15T13:04:37.723Z,8.63
2022-11-15T13:07:04.159Z,6.80
2022-11-15T13:09:30.433Z,7.80
2022-11-15T13:11:56.847Z,7.60
2022-11-15T13:14:23.197Z,7.73
2022-11-15T13:16:49.528Z,6.40
2022-11-15T13:19:15.894Z,6.03
2022-11-15T13:21:42.240Z,6.73
2022-11-15T13:24:08.589Z,8.63
2022-11-15T13:26:34.988Z,7.27
2022-11-15T13:29:01.334Z,6.77
2022-11-15T13:31:27.687Z,6.67
2022-11-15T13:33:54.039Z,6.87
2022-11-15T13:36:21.620Z,7.47
2022-11-15T13:38:46.758Z,6.40
2022-11-15T13:41:14.458Z,7.23
2022-11-15T13:43:39.485Z,6.40
2022-11-15T13:46:05.857Z,7.57
2022-11-15T13:48:32.467Z,6.33
2022-11-15T13:50:58.537Z,6.30
2022-11-15T13:53:24.894Z,7.17
2022-11-15T13:55:51.239Z,6.80
2022-11-15T13:58:21.457Z,8.63
2022-11-15T14:00:43.946Z,6.63
2022-11-15T14:03:10.320Z,6.90
2022-11-15T14:05:36.664Z,6.93
2022-11-15T14:08:03.014Z,7.30
2022-11-15T14:10:29.355Z,7.80
2022-11-15T14:12:55.713Z,7.10
2022-11-15T14:15:22.053Z,7.07
2022-11-15T14:17:50.238Z,7.50
2022-11-15T14:22:57.038Z,7.07
2022-11-15T14:25:23.390Z,7.77
2022-11-15T14:27:49.746Z,7.20
2022-11-15T14:30:16.099Z,8.00
2022-11-15T14:32:42.445Z,7.67
2022-11-15T14:35:08.814Z,6.93
2022-11-15T14:37:35.148Z,7.80
2022-11-15T14:40:01.817Z,7.27
2022-11-15T14:42:28.161Z,7.73
2022-11-15T14:44:54.511Z,8.00
2022-11-15T14:47:20.856Z,7.60
2022-11-15T14:49:47.217Z,7.30
2022-11-15T14:52:13.580Z,6.87
2022-11-15T14:54:39.920Z,8.33
2022-11-15T14:57:06.278Z,7.40
2022-11-15T14:59:32.638Z,6.93
2022-11-15T15:01:59.031Z,8.00
2022-11-15T15:04:26.601Z,8.47
2022-11-15T15:06:51.788Z,9.80
2022-11-15T15:09:18.125Z,8.40
2022-11-15T15:11:44.492Z,6.80
2022-11-15T15:14:10.869Z,7.17
2022-11-15T15:16:37.201Z,6.97
2022-11-15T15:19:03.562Z,7.53
2022-11-15T15:21:36.543Z,7.20
2022-11-15T15:23:56.265Z,8.43
2022-11-15T15:26:22.619Z,8.00
2022-11-15T15:28:52.793Z,7.97
2022-11-15T15:31:17.781Z,9.47
2022-11-15T15:33:44.138Z,7.80
2022-11-15T15:36:10.475Z,7.90
2022-11-15T15:38:36.824Z,8.47
2022-11-15T15:41:03.166Z,8.63
2022-11-15T15:43:29.528Z,8.00
2022-11-15T15:45:55.875Z,8.97
2022-11-15T15:48:22.253Z,8.77
2022-11-15T15:50:48.597Z,9.40
2022-11-15T15:53:14.954Z,9.43
2022-11-15T15:55:41.300Z,9.70
2022-11-15T15:58:07.657Z,9.70
2022-11-15T16:00:33.996Z,9.50
2022-11-15T16:03:00.390Z,10.47
2022-11-15T16:05:26.739Z,11.20
2022-11-15T16:07:53.088Z,9.80
2022-11-15T16:10:19.481Z,10.60
2022-11-15T16:12:45.831Z,9.13
2022-11-15T16:15:12.169Z,10.67
2022-11-15T16:17:38.559Z,9.83
2022-11-15T16:20:06.263Z,11.80
2022-11-15T16:22:31.273Z,10.40
2022-11-15T16:24:57.609Z,10.43
2022-11-15T16:27:23.958Z,10.90
2022-11-15T16:29:50.301Z,11.80
2022-11-15T16:32:16.752Z,13.00
2022-11-15T16:34:48.545Z,11.73
2022-11-15T16:37:09.353Z,11.30
2022-11-15T16:39:35.712Z,10.97
2022-11-15T16:42:02.063Z,10.77
2022-11-15T16:44:28.409Z,10.00
2022-11-15T16:46:54.761Z,10.30
2022-11-15T16:49:21.103Z,10.90
2022-11-15T16:51:47.469Z,10.20
2022-11-15T16:54:13.806Z,12.33
2022-11-15T16:56:40.147Z,10.90
2022-11-15T16:59:06.497Z,10.67
2022-11-15T17:01:32.935Z,11.27
2022-11-15T17:03:59.234Z,11.53
2022-11-15T17:06:25.609Z,9.83
2022-11-15T17:08:51.922Z,10.40
2022-11-15T17:11:18.273Z,9.97
2022-11-15T17:13:44.654Z,10.80
2022-11-15T17:16:10.999Z,11.03
2022-11-15T17:18:37.352Z,10.27
2022-11-15T17:21:03.703Z,10.40
2022-11-15T17:23:30.043Z,14.03
2022-11-15T17:26:00.849Z,12.23
2022-11-15T17:28:22.774Z,11.63
2022-11-15T17:30:49.128Z,11.47
2022-11-15T17:33:15.477Z,11.10
2022-11-15T17:35:41.838Z,12.30
2022-11-15T17:38:08.182Z,11.97
2022-11-15T17:40:34.532Z,12.70
2022-11-15T17:43:00.872Z,14.13
2022-11-15T17:45:27.231Z,12.27
2022-11-15T17:47:53.607Z,13.07
2022-11-15T17:50:19.958Z,12.20
2022-11-15T17:52:46.307Z,12.63
2022-11-15T17:55:12.669Z,13.03
2022-11-15T17:57:39.027Z,13.90
2022-11-15T18:00:05.368Z,12.13
2022-11-15T18:02:31.703Z,12.73
2022-11-15T18:04:58.052Z,11.50
2022-11-15T18:07:24.470Z,12.00
2022-11-15T18:09:50.789Z,11.37
2022-11-15T18:12:17.142Z,12.67
2022-11-15T18:14:43.511Z,10.60
2022-11-15T18:17:09.849Z,12.30
2022-11-15T18:19:36.205Z,11.33
2022-11-15T18:22:02.546Z,10.60
2022-11-15T18:24:28.898Z,10.60
2022-11-15T18:26:55.246Z,10.70
2022-11-15T18:29:21.630Z,11.00
2022-11-15T18:31:48.020Z,10.00
2022-11-15T18:34:14.324Z,10.83
2022-11-15T18:36:40.672Z,10.33
2022-11-15T18:39:07.033Z,10.30
2022-11-15T18:41:33.395Z,9.40
2022-11-15T18:43:59.749Z,9.87
2022-11-15T18:46:26.148Z,9.77
2022-11-15T18:48:52.493Z,10.00
2022-11-15T18:51:18.865Z,9.50
2022-11-15T18:53:45.213Z,9.20
2022-11-15T18:56:11.563Z,10.53
2022-11-15T18:58:37.946Z,9.40
2022-11-15T19:01:04.381Z,9.57
2022-11-15T19:03:30.675Z,10.83
2022-11-15T19:05:57.049Z,9.67
2022-11-15T19:08:23.401Z,9.60
2022-11-15T19:10:50.968Z,10.50
2022-11-15T19:13:16.133Z,9.80
2022-11-15T19:15:42.471Z,9.03
2022-11-15T19:18:08.819Z,9.00
2022-11-15T19:20:35.194Z,9.33
2022-11-15T19:23:01.545Z,9.53
2022-11-15T19:25:27.885Z,10.40
2022-11-15T19:27:54.242Z,9.80
2022-11-15T19:30:20.582Z,10.00
2022-11-15T19:32:46.951Z,9.70
2022-11-15T19:35:13.274Z,8.83
2022-11-15T19:37:39.625Z,8.90
2022-11-15T19:40:05.962Z,8.60
2022-11-15T19:42:32.309Z,9.53
2022-11-15T19:44:58.655Z,8.93
2022-11-15T19:47:25.013Z,9.33
2022-11-15T19:49:51.354Z,9.77
2022-11-15T19:52:17.708Z,8.00
2022-11-15T19:54:44.095Z,8.77
2022-11-15T19:57:10.448Z,8.20
2022-11-15T19:59:36.788Z,9.23
2022-11-15T20:02:03.142Z,8.90
2022-11-15T20:04:29.487Z,9.50
2022-11-15T20:06:55.892Z,8.83
2022-11-15T20:09:22.204Z,8.80
2022-11-15T20:11:48.555Z,8.53
2022-11-15T20:14:14.890Z,9.33
2022-11-15T20:16:41.243Z,8.53
2022-11-15T20:19:07.591Z,9.83
2022-11-15T20:21:33.940Z,9.17
2022-11-15T20:24:00.283Z,9.33
2022-11-15T20:26:26.640Z,8.40
2022-11-15T20:28:52.979Z,9.77
2022-11-15T20:31:19.331Z,9.70
2022-11-15T20:33:45.680Z,9.00
2022-11-15T20:36:12.030Z,8.50
2022-11-15T20:38:38.379Z,9.30
2022-11-15T20:41:04.723Z,8.20
2022-11-15T20:43:31.097Z,8.07
2022-11-15T20:45:57.522Z,8.40
2022-11-15T20:48:23.900Z,8.53
2022-11-15T20:50:50.250Z,9.17
2022-11-15T20:53:16.599Z,8.87
2022-11-15T20:55:42.937Z,9.30
2022-11-15T20:58:09.283Z,8.37
2022-11-15T21:00:35.632Z,8.83
2022-11-15T21:03:01.975Z,8.73
2022-11-15T21:05:28.323Z,8.60
2022-11-15T21:07:54.677Z,8.47
2022-11-15T21:10:21.014Z,9.63
2022-11-15T21:12:47.358Z,9.97
2022-11-15T21:15:13.696Z,8.30
2022-11-15T21:17:40.046Z,8.57
2022-11-15T21:20:06.395Z,8.57
2022-11-15T21:22:32.746Z,8.20
2022-11-15T21:24:59.097Z,8.03
2022-11-15T21:27:25.435Z,7.80
2022-11-15T21:29:51.804Z,8.73
2022-11-15T21:32:18.156Z,8.30
2022-11-15T21:34:44.502Z,8.60
2022-11-15T21:37:10.846Z,8.60
2022-11-15T21:39:37.190Z,8.60
2022-11-15T21:42:03.547Z,7.87
2022-11-15T21:44:29.885Z,9.33
2022-11-15T21:46:56.239Z,8.43
2022-11-15T21:49:22.636Z,8.30
2022-11-15T21:51:48.982Z,8.40
2022-11-15T21:54:15.323Z,8.43
2022-11-15T21:56:41.673Z,8.20
2022-11-15T21:59:08.018Z,7.37
2022-11-15T22:01:34.397Z,7.90
2022-11-15T22:04:00.715Z,9.43
2022-11-15T22:06:27.058Z,8.87
2022-11-15T22:08:53.400Z,8.10
2022-11-15T22:11:19.752Z,8.43
2022-11-15T22:13:46.096Z,8.03
2022-11-15T22:16:12.447Z,8.43
2022-11-15T22:18:39.206Z,8.80
2022-11-15T22:21:05.139Z,7.87
2022-11-15T22:23:31.525Z,8.10
2022-11-15T22:25:57.882Z,8.70
2022-11-15T22:28:24.226Z,8.20
2022-11-15T22:30:50.575Z,8.37
2022-11-15T22:33:16.921Z,8.60
2022-11-15T22:35:43.268Z,8.27
2022-11-15T22:38:10.852Z,7.27
2022-11-15T22:40:35.961Z,8.77
2022-11-15T22:43:02.307Z,7.70
2022-11-15T22:45:28.658Z,8.33
2022-11-15T22:47:55.002Z,8.00
2022-11-15T22:50:21.353Z,7.60
2022-11-15T22:52:47.688Z,9.77
2022-11-15T22:55:14.049Z,8.13
2022-11-15T22:57:40.396Z,8.00
2022-11-15T23:00:06.747Z,8.67
2022-11-15T23:02:33.090Z,7.63
2022-11-15T23:04:59.433Z,8.20
2022-11-15T23:07:25.813Z,7.60
2022-11-15T23:09:52.418Z,7.40
2022-11-15T23:12:18.471Z,7.47
2022-11-15T23:14:44.817Z,7.70
2022-11-15T23:17:11.159Z,8.30
2022-11-15T23:19:37.504Z,7.50
2022-11-15T23:22:03.851Z,10.77
2022-11-15T23:24:30.235Z,8.60
2022-11-15T23:26:56.568Z,9.07
2022-11-15T23:29:22.937Z,7.97
2022-11-15T23:32:00.726Z,7.40
2022-11-15T23:34:21.216Z,7.70
2022-11-15T23:36:41.984Z,7.43
2022-11-15T23:39:08.329Z,9.20
2022-11-15T23:41:34.674Z,8.03
2022-11-15T23:44:01.071Z,8.30
2022-11-15T23:46:27.380Z,7.73
2022-11-15T23:48:53.740Z,8.10
2022-11-15T23:51:20.086Z,8.07
2022-11-15T23:53:46.427Z,7.00
2022-11-15T23:56:12.766Z,7.63
2022-11-15T23:58:39.114Z,7.80
